Time,TemperatureF,DewpointF,PressureIn,WindDirection,WindDirectionDegrees,WindSpeedMPH,WindSpeedGustMPH,Humidity,HourlyPrecipIn,Conditions,Clouds,dailyrainin,SolarRadiationWatts/m^2,SoftwareType,DateUTC
2013-10-31 00:04:00,66.0,64.0,-100.00,SE,137,4.0,12.0,92,0.00,,,0.05,0.000000,,2013-10-31 05:04:00,
2013-10-31 00:43:00,66.0,64.0,-100.00,South,173,6.0,11.0,92,0.00,,,0.05,0.000000,,2013-10-31 05:43:00,
2013-10-31 00:52:00,66.0,64.0,-100.00,South,173,6.0,11.0,92,0.00,,,0.05,0.000000,,2013-10-31 05:52:00,
2013-10-31 01:02:00,66.0,64.0,-100.00,South,173,6.0,11.0,92,0.00,,,0.05,0.000000,,2013-10-31 06:02:00,
2013-10-31 01:42:00,67.0,65.0,-100.00,SE,141,10.0,17.0,93,0.00,,,0.05,0.000000,,2013-10-31 06:42:00,
2013-10-31 01:53:00,67.0,65.0,-100.00,SE,141,10.0,17.0,93,0.00,,,0.05,0.000000,,2013-10-31 06:53:00,
2013-10-31 02:01:00,67.0,65.0,-100.00,SE,141,10.0,17.0,93,0.00,,,0.05,0.000000,,2013-10-31 07:01:00,
2013-10-31 02:42:00,68.0,65.0,-100.00,SSE,151,9.0,16.0,91,0.00,,,0.05,0.000000,,2013-10-31 07:42:00,
2013-10-31 02:52:00,68.0,65.0,-100.00,SSE,151,9.0,16.0,91,0.00,,,0.05,0.000000,,2013-10-31 07:52:00,
2013-10-31 03:03:00,68.0,65.0,-100.00,SSE,151,9.0,16.0,91,0.00,,,0.05,0.000000,,2013-10-31 08:03:00,
2013-10-31 03:42:00,69.0,66.0,-100.00,South,175,6.0,11.0,91,0.00,,,-99.99,0.000000,,2013-10-31 08:42:00,
2013-10-31 03:52:00,69.0,66.0,-100.00,South,175,6.0,11.0,91,0.00,,,-99.99,0.000000,,2013-10-31 08:52:00,
2013-10-31 04:01:00,69.0,66.0,-100.00,South,175,6.0,11.0,91,0.00,,,-99.99,0.000000,,2013-10-31 09:01:00,
2013-10-31 04:43:00,70.0,67.0,-100.00,SSE,162,9.0,15.0,90,0.00,,,0.05,0.000000,,2013-10-31 09:43:00,
2013-10-31 04:53:00,70.0,67.0,-100.00,SSE,162,9.0,15.0,90,0.00,,,0.05,0.000000,,2013-10-31 09:53:00,
2013-10-31 05:03:00,70.0,67.0,-100.00,SSE,162,9.0,15.0,90,0.00,,,0.05,0.000000,,2013-10-31 10:03:00,
2013-10-31 05:42:00,70.0,67.0,-100.00,WSW,252,3.0,14.0,90,0.00,,,0.05,0.000000,,2013-10-31 10:42:00,
2013-10-31 05:53:00,70.0,67.0,-100.00,WSW,252,3.0,14.0,90,0.00,,,0.05,0.000000,,2013-10-31 10:53:00,
2013-10-31 06:03:00,70.0,67.0,-100.00,WSW,252,3.0,14.0,90,0.00,,,0.05,0.000000,,2013-10-31 11:03:00,
2013-10-31 06:42:00,70.0,68.0,-100.00,SSW,192,5.0,11.0,92,0.00,,,0.04,0.000000,,2013-10-31 11:42:00,
2013-10-31 06:52:00,70.0,68.0,-100.00,SSW,192,5.0,11.0,92,0.00,,,0.04,0.000000,,2013-10-31 11:52:00,
2013-10-31 07:01:00,70.0,68.0,-100.00,SSW,192,5.0,11.0,92,0.00,,,0.04,0.000000,,2013-10-31 12:01:00,
2013-10-31 07:42:00,70.0,68.0,-100.00,SSW,198,6.0,11.0,93,0.00,,,0.03,0.000000,,2013-10-31 12:42:00,
2013-10-31 07:52:00,70.0,68.0,-100.00,SSW,198,6.0,11.0,93,0.00,,,0.03,0.000000,,2013-10-31 12:52:00,
2013-10-31 08:01:00,70.0,68.0,-100.00,SSW,198,6.0,11.0,93,0.00,,,0.03,0.000000,,2013-10-31 13:01:00,
2013-10-31 08:42:00,69.0,67.0,-100.00,SSW,198,6.0,11.0,93,0.00,,,0.03,3.000000,,2013-10-31 13:42:00,
2013-10-31 08:52:00,69.0,67.0,-100.00,SSW,198,6.0,11.0,93,0.00,,,0.03,3.000000,,2013-10-31 13:52:00,
2013-10-31 09:02:00,69.0,67.0,-100.00,SSW,198,6.0,11.0,93,0.00,,,0.03,3.000000,,2013-10-31 14:02:00,
2013-10-31 09:42:00,71.0,68.0,-100.00,WSW,241,6.0,13.0,89,0.00,,,0.03,26.000000,,2013-10-31 14:42:00,
2013-10-31 09:52:00,71.0,68.0,-100.00,WSW,241,6.0,13.0,89,0.00,,,0.03,26.000000,,2013-10-31 14:52:00,
2013-10-31 10:02:00,71.0,68.0,-100.00,WSW,241,6.0,13.0,89,0.00,,,0.03,26.000000,,2013-10-31 15:02:00,
2013-10-31 11:43:00,74.0,47.0,-100.00,WSW,251,9.0,16.0,39,-99.99,,,-99.99,540.000000,,2013-10-31 16:43:00,
2013-10-31 11:53:00,74.0,47.0,-100.00,WSW,251,9.0,16.0,39,-99.99,,,-99.99,540.000000,,2013-10-31 16:53:00,
2013-10-31 12:03:00,74.0,47.0,-100.00,WSW,251,9.0,16.0,39,-99.99,,,-99.99,540.000000,,2013-10-31 17:03:00,
2013-10-31 12:43:00,74.0,41.0,-100.00,West,260,10.0,18.0,30,0.00,,,-99.99,729.000000,,2013-10-31 17:43:00,
2013-10-31 12:52:00,74.0,41.0,-100.00,West,260,10.0,18.0,30,0.00,,,-99.99,729.000000,,2013-10-31 17:52:00,
2013-10-31 13:02:00,74.0,41.0,-100.00,West,260,10.0,18.0,30,0.00,,,-99.99,729.000000,,2013-10-31 18:02:00,
2013-10-31 13:42:00,74.0,39.0,-100.00,West,269,8.0,18.0,28,0.00,,,-99.99,775.000000,,2013-10-31 18:42:00,
2013-10-31 13:52:00,74.0,39.0,-100.00,West,269,8.0,18.0,28,0.00,,,-99.99,775.000000,,2013-10-31 18:52:00,
2013-10-31 14:01:00,74.0,39.0,-100.00,West,269,8.0,18.0,28,0.00,,,-99.99,775.000000,,2013-10-31 19:01:00,
2013-10-31 14:42:00,74.0,41.0,-100.00,WNW,294,9.0,18.0,30,0.00,,,-99.99,803.000000,,2013-10-31 19:42:00,
2013-10-31 14:52:00,74.0,41.0,-100.00,WNW,294,9.0,18.0,30,0.00,,,-99.99,803.000000,,2013-10-31 19:52:00,
2013-10-31 15:02:00,74.0,41.0,-100.00,WNW,294,9.0,18.0,30,0.00,,,-99.99,803.000000,,2013-10-31 20:02:00,
2013-10-31 15:42:00,75.0,43.0,-100.00,NW,304,9.0,18.0,32,0.00,,,-99.99,737.000000,,2013-10-31 20:42:00,
2013-10-31 15:52:00,75.0,43.0,-100.00,NW,304,9.0,18.0,32,0.00,,,-99.99,737.000000,,2013-10-31 20:52:00,
2013-10-31 16:02:00,75.0,43.0,-100.00,NW,304,9.0,18.0,32,0.00,,,-99.99,737.000000,,2013-10-31 21:02:00,
2013-10-31 16:44:00,73.0,44.0,-100.00,WNW,297,8.0,18.0,35,0.00,,,-99.99,613.000000,,2013-10-31 21:44:00,
2013-10-31 16:54:00,73.0,44.0,-100.00,WNW,297,8.0,18.0,35,0.00,,,-99.99,613.000000,,2013-10-31 21:54:00,
2013-10-31 17:03:00,73.0,44.0,-100.00,WNW,297,8.0,18.0,35,0.00,,,-99.99,613.000000,,2013-10-31 22:03:00,
2013-10-31 17:43:00,72.0,45.0,-100.00,NW,311,7.0,20.0,38,0.00,,,-99.99,429.000000,,2013-10-31 22:43:00,
2013-10-31 17:53:00,72.0,45.0,-100.00,NW,311,7.0,20.0,38,0.00,,,-99.99,429.000000,,2013-10-31 22:53:00,
2013-10-31 18:03:00,72.0,45.0,-100.00,NW,311,7.0,20.0,38,0.00,,,-99.99,429.000000,,2013-10-31 23:03:00,
2013-10-31 18:43:00,69.0,43.0,-100.00,NW,304,6.0,14.0,39,0.00,,,-99.99,218.000000,,2013-10-31 23:43:00,
2013-10-31 18:54:00,69.0,43.0,-100.00,NW,304,6.0,14.0,39,0.00,,,-99.99,218.000000,,2013-10-31 23:54:00,
2013-10-31 19:01:00,69.0,43.0,-100.00,NW,304,6.0,14.0,39,0.00,,,-99.99,218.000000,,2013-11-01 00:01:00,
2013-10-31 19:42:00,63.0,43.0,-100.00,West,275,2.0,9.0,48,0.00,,,-99.99,15.000000,,2013-11-01 00:42:00,
2013-10-31 19:52:00,63.0,43.0,-100.00,West,275,2.0,9.0,48,0.00,,,-99.99,15.000000,,2013-11-01 00:52:00,
2013-10-31 20:01:00,63.0,43.0,-100.00,West,275,2.0,9.0,48,0.00,,,-99.99,15.000000,,2013-11-01 01:01:00,
2013-10-31 21:42:00,54.0,45.0,-100.00,SE,145,2.0,4.0,72,-99.99,,,-99.99,0.000000,,2013-11-01 02:42:00,
2013-10-31 21:52:00,54.0,45.0,-100.00,SE,145,2.0,4.0,72,-99.99,,,-99.99,0.000000,,2013-11-01 02:52:00,
2013-10-31 22:03:00,54.0,45.0,-100.00,SE,145,2.0,4.0,72,-99.99,,,-99.99,0.000000,,2013-11-01 03:03:00,
2013-10-31 22:45:00,55.0,45.0,-100.00,SE,142,3.0,5.0,69,0.00,,,-99.99,0.000000,,2013-11-01 03:45:00,
2013-10-31 22:54:00,55.0,45.0,-100.00,SE,142,3.0,5.0,69,0.00,,,-99.99,0.000000,,2013-11-01 03:54:00,
2013-10-31 23:03:00,55.0,45.0,-100.00,SE,142,3.0,5.0,69,0.00,,,-99.99,0.000000,,2013-11-01 04:03:00,
2013-10-31 23:44:00,53.0,43.0,-100.00,SE,136,3.0,5.0,69,0.00,,,-99.99,0.000000,,2013-11-01 04:44:00,
2013-10-31 23:54:00,53.0,43.0,-100.00,SE,136,3.0,5.0,69,0.00,,,-99.99,0.000000,,2013-11-01 04:54:00,